• Join FlightAware (Why Join?)
  • Login
  • US Flag 
07:58PM EDT


 

Airport Tracker/Info


-or-


 

Live Flight TrackerFlight Track Log ✈ SWA881 ✈ 27-Apr-2013 ✈ KABQ - KDAL

Flight Track Log - Related Links

Times and Time Zones

All times are in EDT time to prevent confusion due to time zone crossing. See the SWA881 flight status page for this flight to view local times or setup timezone preferences in your user account.

Time Position Orientation Groundspeed Altitude Reporting Facility
EDT Latitude Longitude Course Direction KTS MPH feet Rate Location/Type
08:51PM 35.0033 -106.5325 138° Southeast 223 257 7,900  Level Albuquerque Center
08:51PM 34.9978 -106.5239 128° Southeast 215 247 8,200 2,340 Climbing Albuquerque Center
08:52PM 34.9344 -106.5167 175° South 284 327 10,300 2,400 Climbing Albuquerque Center
08:52PM 34.9244 -106.5144 170° South 255 293 10,700 2,700 Climbing Albuquerque Center
08:53PM 34.8528 -106.5017 172° South 333 383 13,000 3,360 Climbing Albuquerque Center
08:53PM 34.8358 -106.4681 122° Southeast 334 384 14,200 3,540 Climbing Albuquerque Center
08:54PM 34.8225 -106.3906 102° East 377 434 16,600 3,420 Climbing Albuquerque Center
08:54PM 34.8136 -106.3489 105° East 358 412 17,700 2,820 Climbing Albuquerque Center
08:55PM 34.7842 -106.2269 106° East 372 428 20,400 3,000 Climbing Albuquerque Center
08:56PM 34.7706 -106.0889 97° East 386 444 23,900 2,940 Climbing Albuquerque Center
08:57PM 34.7531 -105.9550 99° East 395 455 26,400 2,340 Climbing Albuquerque Center
08:58PM 34.7189 -105.8158 107° East 418 481 28,700 2,160 Climbing Albuquerque Center
08:59PM 34.6858 -105.6739 106° East 429 494 30,900 1,800 Climbing Albuquerque Center
09:00PM 34.6525 -105.5283 106° East 439 505 32,500 1,800 Climbing Albuquerque Center
09:01PM 34.6456 -105.3761 93° East 447 514 34,600 1,800 Climbing Albuquerque Center
09:02PM 34.6383 -105.2242 93° East 448 516 36,200 1,320 Climbing Albuquerque Center
09:03PM 34.6303 -105.0694 94° East 453 521 37,400 1,260 Climbing Albuquerque Center
09:04PM 34.6217 -104.9106 94° East 464 534 38,800 1,380 Climbing Albuquerque Center
09:05PM 34.6131 -104.7539 94° East 463 533 40,300 1,020 Climbing Albuquerque Center
09:06PM 34.6053 -104.5983 93° East 461 531 40,900 300 Climbing Albuquerque Center
09:07PM 34.5972 -104.4397 93° East 467 537 41,000  Climbing Albuquerque Center
09:08PM 34.5853 -104.2503 94° East 478 550 41,000  Level Albuquerque Center
09:09PM 34.5758 -104.0897 94° East 478 550 41,000  Level Albuquerque Center
09:10PM 34.5667 -103.9294 94° East 476 548 41,000  Level Albuquerque Center
09:11PM 34.5569 -103.7683 94° East 476 548 41,000  Level Albuquerque Center
09:12PM 34.5472 -103.6072 94° East 477 549 41,000  Level Albuquerque Center
09:13PM 34.5367 -103.4456 94° East 478 550 41,000  Level Albuquerque Center
09:14PM 34.5258 -103.2836 95° East 480 552 41,000  Level Albuquerque Center
09:15PM 34.5153 -103.1208 94° East 481 554 41,000  Level Albuquerque Center
09:16PM 34.5031 -102.9592 95° East 480 552 41,000  Level Albuquerque Center
09:17PM 34.4914 -102.7906 95° East 480 552 41,000  Level Albuquerque Center
09:18PM 34.4739 -102.6300 97° East 481 554 41,000  Level Albuquerque Center
09:19PM 34.4569 -102.4703 97° East 482 555 41,000  Level Albuquerque Center
09:20PM 34.4394 -102.3106 98° East 482 555 41,000  Level Albuquerque Center
09:21PM 34.4231 -102.1508 97° East 481 554 41,000  Level Albuquerque Center
09:22PM 34.4058 -101.9919 97° East 481 554 41,000  Level Albuquerque Center
09:23PM 34.3883 -101.8328 98° East 480 552 41,000  Level Albuquerque Center
09:24PM 34.3672 -101.6406 98° East 482 555 41,000  Level Albuquerque Center
09:25PM 34.3503 -101.4819 97° East 481 554 41,000  Level Albuquerque Center
09:26PM 34.3319 -101.3242 98° East 478 550 41,000  Level Albuquerque Center
09:27PM 34.3144 -101.1642 97° East 481 554 41,000  Level Albuquerque Center
09:29PM 34.2947 -101.0067 99° East 479 551 41,000  Level Albuquerque Center
09:30PM 34.2561 -100.8206 104° East 484 557 41,000  Level Fort Worth Center
09:31PM 34.2228 -100.6661 105° East 484 557 41,000  Level Fort Worth Center
09:32PM 34.1892 -100.5092 104° East 484 557 41,000  Level Fort Worth Center
09:33PM 34.1531 -100.3700 107° East 478 550 41,000  Level Fort Worth Center
09:34PM 34.1169 -100.2156 106° East 478 550 41,000  Level Fort Worth Center
09:35PM 34.0806 -100.0614 106° East 478 550 41,000  Level Fort Worth Center
09:36PM 34.0419 -99.9050 107° East 478 550 41,000  Level Fort Worth Center
09:37PM 33.9972 -99.7358 108° East 478 550 41,000  Level Fort Worth Center
09:38PM 33.9542 -99.5844 109° East 478 550 41,000  Level Fort Worth Center
09:39PM 33.9086 -99.4306 110° East 489 563 41,000 -120 Level Fort Worth Center
09:40PM 33.8672 -99.2822 109° East 484 557 40,800 -1,200 Descending Fort Worth Center
09:41PM 33.8256 -99.1336 109° East 473 544 38,600 -2,400 Descending Fort Worth Center
09:42PM 33.7878 -98.9856 107° East 466 536 36,000 -2,820 Descending Fort Worth Center
09:43PM 33.7394 -98.8372 111° Southeast 472 543 33,000 -2,880 Descending Fort Worth Center
09:44PM 33.6953 -98.6842 109° East 472 543 30,300 -2,580 Descending Fort Worth Center
09:45PM 33.6528 -98.5389 109° East 472 543 27,900 -2,400 Descending Fort Worth Center
09:46PM 33.6103 -98.3911 109° East 467 537 25,600 -2,340 Descending Fort Worth Center
09:47PM 33.5672 -98.2561 111° Southeast 457 526 23,300 -2,100 Descending Fort Worth Center
09:48PM 33.5306 -98.1336 110° East 440 506 21,400 -2,100 Descending Fort Worth Center
09:49PM 33.4875 -97.9914 110° East 421 484 19,200 -2,040 Descending Fort Worth Center
09:50PM 33.4544 -97.8789 109° East 410 472 17,400 -2,100 Descending Fort Worth Center
09:51PM 33.4133 -97.7444 110° East 397 457 15,100 -2,160 Descending Fort Worth Center
09:52PM 33.3781 -97.6422 112° Southeast 387 445 13,100 -1,920 Descending Fort Worth Center
09:53PM 33.3072 -97.5550 134° Southeast 364 419 11,300 -1,080 Descending Fort Worth Center
09:54PM 33.2300 -97.4656 136° Southeast 353 406 11,000 -180 Descending Fort Worth Center
09:55PM 33.1694 -97.3911 134° Southeast 348 400 11,000  Level Fort Worth Center
09:56PM 33.0900 -97.3019 137° Southeast 348 400 11,000  Level Fort Worth Center
09:57PM 33.0294 -97.2300 135° Southeast 348 400 11,000 -300 Level Fort Worth Center
09:58PM 32.9667 -97.1533 134° Southeast 332 382 10,400 -1,320 Descending Fort Worth Center
09:58PM 32.9167 -97.1000 138° Southeast 307 353 8,800 -2,160 Descending Dallas / Fort Worth TRACON
09:59PM 32.8500 -97.0167 134° Southeast 362 417 6,800 -2,040 Descending Dallas / Fort Worth TRACON
10:00PM 32.8000 -96.9500 132° Southeast 280 322 4,800 -1,860 Descending Dallas / Fort Worth TRACON
10:01PM 32.7500 -96.8833 132° Southeast 277 319 3,100 -900 Descending Dallas / Fort Worth TRACON
10:02PM 32.7167 -96.8167 121° Southeast 220 253 3,000 -480 Descending Dallas / Fort Worth TRACON
10:03PM 32.7333 -96.7667 68° East 177 204 2,200 -420 Descending Dallas / Fort Worth TRACON
10:04PM 32.7833 -96.7833 344° North 163 188 2,200 -420 Level Dallas / Fort Worth TRACON
10:05PM 32.8000 -96.8000 320° Northwest 136 157 1,400 -840 Descending Dallas / Fort Worth TRACON
10:06PM 32.8333 -96.8333 320° Northwest 140 161 700 -720 Descending Dallas / Fort Worth TRACON